sensor_id;sensor_type;location;lat;lon;timestamp;P1;P2;P0
45700;PMS5003;36277;32.852;-116.998;2023-01-24T00:01:23;0.00;0.00;0.00
45700;PMS5003;36277;32.852;-116.998;2023-01-24T00:03:50;0.00;0.00;0.00
45700;PMS5003;36277;32.852;-116.998;2023-01-24T00:06:17;0.00;0.00;0.00
45700;PMS5003;36277;32.852;-116.998;2023-01-24T00:08:43;0.00;0.00;0.00
45700;PMS5003;36277;32.852;-116.998;2023-01-24T00:11:10;0.00;0.00;0.00
45700;PMS5003;36277;32.852;-116.998;2023-01-24T00:13:38;0.00;0.00;0.00
45700;PMS5003;36277;32.852;-116.998;2023-01-24T00:16:08;0.00;0.00;0.00
45700;PMS5003;36277;32.852;-116.998;2023-01-24T00:18:43;0.00;0.00;0.00
45700;PMS5003;36277;32.852;-116.998;2023-01-24T00:21:13;0.00;0.00;0.00
45700;PMS5003;36277;32.852;-116.998;2023-01-24T00:23:42;0.00;0.00;0.00
45700;PMS5003;36277;32.852;-116.998;2023-01-24T00:26:10;0.00;0.00;0.00
45700;PMS5003;36277;32.852;-116.998;2023-01-24T00:28:37;0.00;0.00;0.00
45700;PMS5003;36277;32.852;-116.998;2023-01-24T00:31:04;0.00;0.00;0.00
45700;PMS5003;36277;32.852;-116.998;2023-01-24T00:33:31;0.00;0.00;0.00
45700;PMS5003;36277;32.852;-116.998;2023-01-24T00:35:58;0.00;0.00;0.00
45700;PMS5003;36277;32.852;-116.998;2023-01-24T00:38:25;0.00;0.00;0.00
45700;PMS5003;36277;32.852;-116.998;2023-01-24T00:40:54;0.00;0.00;0.00
45700;PMS5003;36277;32.852;-116.998;2023-01-24T00:43:20;0.00;0.00;0.00
45700;PMS5003;36277;32.852;-116.998;2023-01-24T00:45:46;0.00;0.00;0.00
45700;PMS5003;36277;32.852;-116.998;2023-01-24T00:48:13;0.00;0.00;0.00
45700;PMS5003;36277;32.852;-116.998;2023-01-24T00:50:39;0.00;0.00;0.00
45700;PMS5003;36277;32.852;-116.998;2023-01-24T00:53:06;0.00;0.00;0.00
45700;PMS5003;36277;32.852;-116.998;2023-01-24T00:55:33;0.00;0.00;0.00
45700;PMS5003;36277;32.852;-116.998;2023-01-24T00:57:59;0.00;0.00;0.00
45700;PMS5003;36277;32.852;-116.998;2023-01-24T01:00:26;0.00;0.00;0.00
45700;PMS5003;36277;32.852;-116.998;2023-01-24T01:02:52;0.00;0.00;0.00
45700;PMS5003;36277;32.852;-116.998;2023-01-24T01:05:18;0.00;0.00;0.00
45700;PMS5003;36277;32.852;-116.998;2023-01-24T01:07:45;0.00;0.00;0.00
45700;PMS5003;36277;32.852;-116.998;2023-01-24T01:10:11;0.00;0.00;0.00
45700;PMS5003;36277;32.852;-116.998;2023-01-24T01:12:37;0.00;0.00;0.00
45700;PMS5003;36277;32.852;-116.998;2023-01-24T01:15:04;0.00;0.00;0.00
45700;PMS5003;36277;32.852;-116.998;2023-01-24T01:17:30;0.00;0.00;0.00
45700;PMS5003;36277;32.852;-116.998;2023-01-24T01:19:56;0.00;0.00;0.00
45700;PMS5003;36277;32.852;-116.998;2023-01-24T01:22:24;0.00;0.00;0.00
45700;PMS5003;36277;32.852;-116.998;2023-01-24T01:24:50;0.00;0.00;0.00
45700;PMS5003;36277;32.852;-116.998;2023-01-24T01:27:16;0.00;0.00;0.00
45700;PMS5003;36277;32.852;-116.998;2023-01-24T01:29:42;0.00;0.00;0.00
45700;PMS5003;36277;32.852;-116.998;2023-01-24T01:32:09;0.00;0.00;0.00
45700;PMS5003;36277;32.852;-116.998;2023-01-24T01:34:35;0.00;0.00;0.00
45700;PMS5003;36277;32.852;-116.998;2023-01-24T01:37:01;0.00;0.00;0.00
45700;PMS5003;36277;32.852;-116.998;2023-01-24T01:39:28;0.00;0.00;0.00
45700;PMS5003;36277;32.852;-116.998;2023-01-24T01:41:54;0.00;0.00;0.00
45700;PMS5003;36277;32.852;-116.998;2023-01-24T01:44:21;0.00;0.00;0.00
45700;PMS5003;36277;32.852;-116.998;2023-01-24T01:47:16;0.00;0.00;0.00
45700;PMS5003;36277;32.852;-116.998;2023-01-24T01:49:57;0.00;0.00;0.00
45700;PMS5003;36277;32.852;-116.998;2023-01-24T01:52:43;0.00;0.00;0.00
45700;PMS5003;36277;32.852;-116.998;2023-01-24T01:55:13;0.00;0.00;0.00
45700;PMS5003;36277;32.852;-116.998;2023-01-24T01:57:43;0.00;0.00;0.00
45700;PMS5003;36277;32.852;-116.998;2023-01-24T02:00:18;0.00;0.00;0.00
45700;PMS5003;36277;32.852;-116.998;2023-01-24T02:02:48;0.00;0.00;0.00
45700;PMS5003;36277;32.852;-116.998;2023-01-24T02:05:56;0.00;0.00;0.00
45700;PMS5003;36277;32.852;-116.998;2023-01-24T02:08:23;0.00;0.00;0.00
45700;PMS5003;36277;32.852;-116.998;2023-01-24T02:10:51;0.00;0.00;0.00
45700;PMS5003;36277;32.852;-116.998;2023-01-24T02:13:37;0.00;0.00;0.00
45700;PMS5003;36277;32.852;-116.998;2023-01-24T02:16:09;0.00;0.00;0.00
45700;PMS5003;36277;32.852;-116.998;2023-01-24T02:18:37;0.00;0.00;0.00
45700;PMS5003;36277;32.852;-116.998;2023-01-24T02:21:10;0.00;0.00;0.00
45700;PMS5003;36277;32.852;-116.998;2023-01-24T02:26:16;0.60;0.60;0.40
45700;PMS5003;36277;32.852;-116.998;2023-01-24T02:31:21;0.00;0.00;0.00
45700;PMS5003;36277;32.852;-116.998;2023-01-24T02:33:48;0.20;0.20;0.20
45700;PMS5003;36277;32.852;-116.998;2023-01-24T02:36:19;0.80;0.80;0.80
45700;PMS5003;36277;32.852;-116.998;2023-01-24T02:39:06;1.00;1.00;1.00
45700;PMS5003;36277;32.852;-116.998;2023-01-24T02:41:47;1.00;1.00;1.00
45700;PMS5003;36277;32.852;-116.998;2023-01-24T02:44:17;1.00;1.00;1.00
45700;PMS5003;36277;32.852;-116.998;2023-01-24T02:46:48;1.00;1.00;0.40
45700;PMS5003;36277;32.852;-116.998;2023-01-24T02:49:14;0.40;0.40;0.20
45700;PMS5003;36277;32.852;-116.998;2023-01-24T02:51:41;1.00;1.00;1.00
45700;PMS5003;36277;32.852;-116.998;2023-01-24T02:54:25;1.00;1.00;1.00
45700;PMS5003;36277;32.852;-116.998;2023-01-24T02:56:51;1.80;1.80;1.80
45700;PMS5003;36277;32.852;-116.998;2023-01-24T02:59:36;0.60;0.60;0.60
45700;PMS5003;36277;32.852;-116.998;2023-01-24T03:02:02;0.20;0.20;0.00
45700;PMS5003;36277;32.852;-116.998;2023-01-24T03:04:29;1.00;1.00;1.00
45700;PMS5003;36277;32.852;-116.998;2023-01-24T03:06:55;1.00;1.00;1.00
45700;PMS5003;36277;32.852;-116.998;2023-01-24T03:09:21;1.00;1.00;1.00
45700;PMS5003;36277;32.852;-116.998;2023-01-24T03:11:59;2.80;2.80;2.00
45700;PMS5003;36277;32.852;-116.998;2023-01-24T03:14:45;1.00;1.00;1.00
45700;PMS5003;36277;32.852;-116.998;2023-01-24T03:17:30;1.00;1.00;1.00
45700;PMS5003;36277;32.852;-116.998;2023-01-24T03:20:15;0.20;0.20;0.20
45700;PMS5003;36277;32.852;-116.998;2023-01-24T03:23:00;1.00;1.00;1.00
45700;PMS5003;36277;32.852;-116.998;2023-01-24T03:28:17;1.00;1.00;1.00
45700;PMS5003;36277;32.852;-116.998;2023-01-24T03:31:05;3.40;3.40;3.00
45700;PMS5003;36277;32.852;-116.998;2023-01-24T03:33:50;24.80;24.20;15.20
45700;PMS5003;36277;32.852;-116.998;2023-01-24T03:36:34;200.25;198.25;135.75
45700;PMS5003;36277;32.852;-116.998;2023-01-24T03:39:01;408.00;382.80;221.00
45700;PMS5003;36277;32.852;-116.998;2023-01-24T03:41:45;445.00;422.50;234.83
45700;PMS5003;36277;32.852;-116.998;2023-01-24T03:44:11;1076.83;884.33;264.00
45700;PMS5003;36277;32.852;-116.998;2023-01-24T03:46:38;816.00;714.50;261.33
45700;PMS5003;36277;32.852;-116.998;2023-01-24T03:49:05;723.17;631.67;263.83
45700;PMS5003;36277;32.852;-116.998;2023-01-24T03:51:32;627.83;584.17;272.33
45700;PMS5003;36277;32.852;-116.998;2023-01-24T03:54:16;662.67;591.83;264.17
45700;PMS5003;36277;32.852;-116.998;2023-01-24T03:56:43;625.00;574.80;272.20
45700;PMS5003;36277;32.852;-116.998;2023-01-24T03:59:09;622.40;575.20;272.40
45700;PMS5003;36277;32.852;-116.998;2023-01-24T04:01:35;605.40;533.80;260.80
45700;PMS5003;36277;32.852;-116.998;2023-01-24T04:04:02;558.80;508.60;252.20
45700;PMS5003;36277;32.852;-116.998;2023-01-24T04:06:28;556.80;502.20;251.80
45700;PMS5003;36277;32.852;-116.998;2023-01-24T04:08:54;566.83;520.33;262.33
45700;PMS5003;36277;32.852;-116.998;2023-01-24T04:11:20;553.83;502.83;255.67
45700;PMS5003;36277;32.852;-116.998;2023-01-24T04:13:47;567.80;524.40;257.60
45700;PMS5003;36277;32.852;-116.998;2023-01-24T04:16:13;575.00;510.33;263.33
45700;PMS5003;36277;32.852;-116.998;2023-01-24T04:18:40;559.50;515.00;256.67
45700;PMS5003;36277;32.852;-116.998;2023-01-24T04:21:06;567.33;518.00;255.00
45700;PMS5003;36277;32.852;-116.998;2023-01-24T04:23:32;537.00;507.50;257.83
45700;PMS5003;36277;32.852;-116.998;2023-01-24T04:25:58;529.17;495.00;255.17
45700;PMS5003;36277;32.852;-116.998;2023-01-24T04:28:26;541.40;480.60;257.60
45700;PMS5003;36277;32.852;-116.998;2023-01-24T04:30:56;532.50;485.67;247.67
45700;PMS5003;36277;32.852;-116.998;2023-01-24T04:33:26;537.20;484.40;246.80
45700;PMS5003;36277;32.852;-116.998;2023-01-24T04:35:56;522.20;479.20;238.40
45700;PMS5003;36277;32.852;-116.998;2023-01-24T04:38:23;534.33;487.00;252.00
45700;PMS5003;36277;32.852;-116.998;2023-01-24T04:40:59;510.83;488.00;244.33
45700;PMS5003;36277;32.852;-116.998;2023-01-24T04:43:26;526.33;482.17;249.00
45700;PMS5003;36277;32.852;-116.998;2023-01-24T04:45:58;539.17;475.33;249.00
45700;PMS5003;36277;32.852;-116.998;2023-01-24T04:48:25;511.20;465.60;242.20
45700;PMS5003;36277;32.852;-116.998;2023-01-24T04:50:51;525.60;474.60;251.40
45700;PMS5003;36277;32.852;-116.998;2023-01-24T04:53:24;479.50;443.75;239.25
45700;PMS5003;36277;32.852;-116.998;2023-01-24T04:55:50;481.60;451.20;244.20
45700;PMS5003;36277;32.852;-116.998;2023-01-24T04:58:16;466.20;428.40;225.20
45700;PMS5003;36277;32.852;-116.998;2023-01-24T05:00:43;467.80;434.80;237.00
45700;PMS5003;36277;32.852;-116.998;2023-01-24T05:03:09;477.00;426.75;228.25
45700;PMS5003;36277;32.852;-116.998;2023-01-24T05:05:35;461.50;428.75;230.75
45700;PMS5003;36277;32.852;-116.998;2023-01-24T05:08:01;469.20;435.20;236.40
45700;PMS5003;36277;32.852;-116.998;2023-01-24T05:10:28;443.83;417.17;221.00
45700;PMS5003;36277;32.852;-116.998;2023-01-24T05:12:54;439.17;410.00;230.83
45700;PMS5003;36277;32.852;-116.998;2023-01-24T05:15:20;429.83;402.67;224.50
45700;PMS5003;36277;32.852;-116.998;2023-01-24T05:17:48;417.20;391.80;218.60
45700;PMS5003;36277;32.852;-116.998;2023-01-24T05:20:14;412.00;391.60;210.80
45700;PMS5003;36277;32.852;-116.998;2023-01-24T05:22:41;421.60;394.80;225.40
45700;PMS5003;36277;32.852;-116.998;2023-01-24T05:25:13;395.00;371.20;212.40
45700;PMS5003;36277;32.852;-116.998;2023-01-24T05:27:40;416.60;369.20;213.60
45700;PMS5003;36277;32.852;-116.998;2023-01-24T05:30:07;381.60;358.80;211.00
45700;PMS5003;36277;32.852;-116.998;2023-01-24T05:32:34;378.60;358.60;206.80
45700;PMS5003;36277;32.852;-116.998;2023-01-24T05:35:00;379.60;363.80;212.80
45700;PMS5003;36277;32.852;-116.998;2023-01-24T05:37:27;376.60;359.80;207.60
45700;PMS5003;36277;32.852;-116.998;2023-01-24T05:39:53;369.33;349.00;198.83
45700;PMS5003;36277;32.852;-116.998;2023-01-24T05:42:19;361.20;333.40;186.00
45700;PMS5003;36277;32.852;-116.998;2023-01-24T05:44:46;344.20;321.20;188.00
45700;PMS5003;36277;32.852;-116.998;2023-01-24T05:47:12;344.60;327.60;196.60
45700;PMS5003;36277;32.852;-116.998;2023-01-24T05:49:39;358.50;345.50;203.67
45700;PMS5003;36277;32.852;-116.998;2023-01-24T05:52:05;343.60;327.40;195.00
45700;PMS5003;36277;32.852;-116.998;2023-01-24T05:54:32;326.40;315.00;182.20
45700;PMS5003;36277;32.852;-116.998;2023-01-24T05:56:58;316.00;297.00;182.20
45700;PMS5003;36277;32.852;-116.998;2023-01-24T05:59:24;301.00;286.20;175.40
45700;PMS5003;36277;32.852;-116.998;2023-01-24T06:01:50;278.40;260.20;160.40
45700;PMS5003;36277;32.852;-116.998;2023-01-24T06:04:17;240.67;232.67;146.67
45700;PMS5003;36277;32.852;-116.998;2023-01-24T06:06:43;245.00;228.33;137.67
45700;PMS5003;36277;32.852;-116.998;2023-01-24T06:09:09;205.50;200.50;130.50
45700;PMS5003;36277;32.852;-116.998;2023-01-24T06:11:36;194.50;187.00;119.00
45700;PMS5003;36277;32.852;-116.998;2023-01-24T06:14:02;185.75;178.25;113.00
45700;PMS5003;36277;32.852;-116.998;2023-01-24T06:16:28;162.25;158.75;103.75
45700;PMS5003;36277;32.852;-116.998;2023-01-24T06:18:55;155.00;149.33;95.67
45700;PMS5003;36277;32.852;-116.998;2023-01-24T06:23:57;129.50;127.50;87.00
45700;PMS5003;36277;32.852;-116.998;2023-01-24T06:26:24;113.50;108.75;76.75
45700;PMS5003;36277;32.852;-116.998;2023-01-24T06:28:50;95.00;95.00;66.40
45700;PMS5003;36277;32.852;-116.998;2023-01-24T06:31:30;91.20;89.20;59.40
45700;PMS5003;36277;32.852;-116.998;2023-01-24T06:39:52;77.00;71.40;52.80
45700;PMS5003;36277;32.852;-116.998;2023-01-24T06:42:19;75.40;69.00;50.00
45700;PMS5003;36277;32.852;-116.998;2023-01-24T06:44:47;67.80;56.20;42.00
45700;PMS5003;36277;32.852;-116.998;2023-01-24T06:47:14;63.40;52.80;40.20
45700;PMS5003;36277;32.852;-116.998;2023-01-24T06:49:41;66.20;54.20;40.00
45700;PMS5003;36277;32.852;-116.998;2023-01-24T06:52:08;61.20;50.80;35.20
45700;PMS5003;36277;32.852;-116.998;2023-01-24T06:54:35;56.25;47.25;34.00
45700;PMS5003;36277;32.852;-116.998;2023-01-24T06:57:02;54.00;45.25;33.00
45700;PMS5003;36277;32.852;-116.998;2023-01-24T06:59:29;51.75;44.50;31.25
45700;PMS5003;36277;32.852;-116.998;2023-01-24T07:01:55;46.75;40.25;28.00
45700;PMS5003;36277;32.852;-116.998;2023-01-24T07:04:21;45.25;39.00;28.00
45700;PMS5003;36277;32.852;-116.998;2023-01-24T07:06:48;44.50;38.75;28.00
45700;PMS5003;36277;32.852;-116.998;2023-01-24T07:09:18;41.75;36.75;27.25
45700;PMS5003;36277;32.852;-116.998;2023-01-24T07:11:48;38.75;35.00;25.50
45700;PMS5003;36277;32.852;-116.998;2023-01-24T07:14:18;36.00;33.00;24.75
45700;PMS5003;36277;32.852;-116.998;2023-01-24T07:16:45;34.50;32.50;24.00
45700;PMS5003;36277;32.852;-116.998;2023-01-24T07:19:13;33.00;32.00;23.25
45700;PMS5003;36277;32.852;-116.998;2023-01-24T07:21:42;28.50;28.50;20.75
45700;PMS5003;36277;32.852;-116.998;2023-01-24T07:24:18;31.25;30.25;23.00
45700;PMS5003;36277;32.852;-116.998;2023-01-24T07:26:47;29.25;29.00;22.50
45700;PMS5003;36277;32.852;-116.998;2023-01-24T07:29:16;28.00;28.00;22.25
45700;PMS5003;36277;32.852;-116.998;2023-01-24T07:31:43;33.00;31.25;23.00
45700;PMS5003;36277;32.852;-116.998;2023-01-24T07:34:10;30.25;30.00;22.00
45700;PMS5003;36277;32.852;-116.998;2023-01-24T07:36:36;29.50;29.50;22.00
45700;PMS5003;36277;32.852;-116.998;2023-01-24T07:39:03;26.75;26.75;20.25
45700;PMS5003;36277;32.852;-116.998;2023-01-24T07:41:29;19.75;19.75;16.00
45700;PMS5003;36277;32.852;-116.998;2023-01-24T07:43:56;29.75;29.75;21.75
45700;PMS5003;36277;32.852;-116.998;2023-01-24T07:46:22;25.25;25.25;22.00
45700;PMS5003;36277;32.852;-116.998;2023-01-24T07:48:48;27.75;27.75;21.25
45700;PMS5003;36277;32.852;-116.998;2023-01-24T07:51:15;22.50;22.50;20.00
45700;PMS5003;36277;32.852;-116.998;2023-01-24T07:53:41;27.25;27.25;20.00
45700;PMS5003;36277;32.852;-116.998;2023-01-24T07:56:07;27.50;27.50;20.00
45700;PMS5003;36277;32.852;-116.998;2023-01-24T07:58:34;26.00;26.00;21.75
45700;PMS5003;36277;32.852;-116.998;2023-01-24T08:01:00;22.50;22.50;16.75
45700;PMS5003;36277;32.852;-116.998;2023-01-24T08:03:26;21.00;21.00;16.75
45700;PMS5003;36277;32.852;-116.998;2023-01-24T08:05:53;23.75;23.75;19.00
45700;PMS5003;36277;32.852;-116.998;2023-01-24T08:08:19;22.75;22.75;19.25
45700;PMS5003;36277;32.852;-116.998;2023-01-24T08:10:45;21.75;21.75;18.25
45700;PMS5003;36277;32.852;-116.998;2023-01-24T08:13:12;23.00;23.00;18.50
45700;PMS5003;36277;32.852;-116.998;2023-01-24T08:15:38;20.75;20.75;17.50
45700;PMS5003;36277;32.852;-116.998;2023-01-24T08:18:04;22.75;22.75;19.00
45700;PMS5003;36277;32.852;-116.998;2023-01-24T08:20:31;26.25;26.25;19.75
45700;PMS5003;36277;32.852;-116.998;2023-01-24T08:22:57;21.75;21.75;18.00
45700;PMS5003;36277;32.852;-116.998;2023-01-24T08:25:24;21.50;21.50;17.50
45700;PMS5003;36277;32.852;-116.998;2023-01-24T08:27:52;19.00;19.00;16.00
45700;PMS5003;36277;32.852;-116.998;2023-01-24T08:30:19;19.50;19.50;16.75
45700;PMS5003;36277;32.852;-116.998;2023-01-24T08:32:45;20.75;20.75;15.25
45700;PMS5003;36277;32.852;-116.998;2023-01-24T08:35:11;14.00;14.00;11.00
45700;PMS5003;36277;32.852;-116.998;2023-01-24T08:37:38;19.00;19.00;14.00
45700;PMS5003;36277;32.852;-116.998;2023-01-24T08:40:04;17.25;17.25;14.50
45700;PMS5003;36277;32.852;-116.998;2023-01-24T08:42:31;18.00;18.00;15.00
45700;PMS5003;36277;32.852;-116.998;2023-01-24T08:44:57;15.50;15.50;13.00
45700;PMS5003;36277;32.852;-116.998;2023-01-24T08:47:24;17.00;17.00;14.25
45700;PMS5003;36277;32.852;-116.998;2023-01-24T08:49:50;19.50;19.50;15.50
45700;PMS5003;36277;32.852;-116.998;2023-01-24T08:52:16;19.50;19.50;14.50
45700;PMS5003;36277;32.852;-116.998;2023-01-24T08:54:42;15.25;15.25;12.00
45700;PMS5003;36277;32.852;-116.998;2023-01-24T08:57:09;13.25;13.25;12.50
45700;PMS5003;36277;32.852;-116.998;2023-01-24T08:59:35;18.25;18.25;14.50
45700;PMS5003;36277;32.852;-116.998;2023-01-24T09:02:02;19.50;19.50;14.50
45700;PMS5003;36277;32.852;-116.998;2023-01-24T09:04:29;15.25;15.25;12.75
45700;PMS5003;36277;32.852;-116.998;2023-01-24T09:06:56;14.50;14.50;12.00
45700;PMS5003;36277;32.852;-116.998;2023-01-24T09:09:22;15.00;15.00;12.75
45700;PMS5003;36277;32.852;-116.998;2023-01-24T09:11:49;12.75;12.75;12.00
45700;PMS5003;36277;32.852;-116.998;2023-01-24T09:14:17;14.50;14.50;12.00
45700;PMS5003;36277;32.852;-116.998;2023-01-24T09:16:43;14.50;14.50;12.50
45700;PMS5003;36277;32.852;-116.998;2023-01-24T09:19:11;13.75;13.75;12.00
45700;PMS5003;36277;32.852;-116.998;2023-01-24T09:21:38;14.00;14.00;11.75
45700;PMS5003;36277;32.852;-116.998;2023-01-24T09:24:04;12.00;12.00;11.00
45700;PMS5003;36277;32.852;-116.998;2023-01-24T09:26:30;15.25;14.25;11.75
45700;PMS5003;36277;32.852;-116.998;2023-01-24T09:28:57;13.00;13.00;10.50
45700;PMS5003;36277;32.852;-116.998;2023-01-24T09:31:23;12.50;12.50;11.25
45700;PMS5003;36277;32.852;-116.998;2023-01-24T09:33:49;13.50;13.50;12.00
45700;PMS5003;36277;32.852;-116.998;2023-01-24T09:36:16;13.75;13.75;12.25
45700;PMS5003;36277;32.852;-116.998;2023-01-24T09:38:42;12.00;12.00;10.75
45700;PMS5003;36277;32.852;-116.998;2023-01-24T09:41:16;13.50;13.50;10.50
45700;PMS5003;36277;32.852;-116.998;2023-01-24T09:51:57;11.00;11.00;10.00
45700;PMS5003;36277;32.852;-116.998;2023-01-24T09:55:09;11.00;11.00;9.00
45700;PMS5003;36277;32.852;-116.998;2023-01-24T09:57:32;9.75;9.75;8.75
45700;PMS5003;36277;32.852;-116.998;2023-01-24T10:00:28;10.00;10.00;8.00
45700;PMS5003;36277;32.852;-116.998;2023-01-24T10:03:01;9.75;9.75;7.00
45700;PMS5003;36277;32.852;-116.998;2023-01-24T10:05:32;7.80;7.80;7.00
45700;PMS5003;36277;32.852;-116.998;2023-01-24T10:10:53;7.00;7.00;6.50
45700;PMS5003;36277;32.852;-116.998;2023-01-24T10:21:46;4.00;4.00;4.00
45700;PMS5003;36277;32.852;-116.998;2023-01-24T10:24:30;3.80;3.80;3.80
45700;PMS5003;36277;32.852;-116.998;2023-01-24T10:27:01;5.00;5.00;4.00
45700;PMS5003;36277;32.852;-116.998;2023-01-24T10:29:38;2.00;2.00;2.00
45700;PMS5003;36277;32.852;-116.998;2023-01-24T10:32:11;3.20;3.20;3.00
45700;PMS5003;36277;32.852;-116.998;2023-01-24T10:37:31;1.00;1.00;1.00
45700;PMS5003;36277;32.852;-116.998;2023-01-24T10:40:10;2.60;2.60;2.60
45700;PMS5003;36277;32.852;-116.998;2023-01-24T10:42:38;2.20;2.20;2.20
45700;PMS5003;36277;32.852;-116.998;2023-01-24T10:47:50;1.20;1.20;1.20
45700;PMS5003;36277;32.852;-116.998;2023-01-24T10:50:32;1.60;1.60;1.40
45700;PMS5003;36277;32.852;-116.998;2023-01-24T10:55:48;2.00;2.00;2.00
45700;PMS5003;36277;32.852;-116.998;2023-01-24T10:58:25;2.00;2.00;2.00
45700;PMS5003;36277;32.852;-116.998;2023-01-24T11:00:58;2.00;2.00;2.00
45700;PMS5003;36277;32.852;-116.998;2023-01-24T11:03:32;2.20;2.20;2.20
45700;PMS5003;36277;32.852;-116.998;2023-01-24T11:06:03;1.00;1.00;1.00
45700;PMS5003;36277;32.852;-116.998;2023-01-24T11:08:36;1.80;1.80;1.60
45700;PMS5003;36277;32.852;-116.998;2023-01-24T11:11:03;2.00;2.00;1.80
45700;PMS5003;36277;32.852;-116.998;2023-01-24T11:13:46;2.00;2.00;2.00
45700;PMS5003;36277;32.852;-116.998;2023-01-24T11:18:52;1.80;1.80;1.80
45700;PMS5003;36277;32.852;-116.998;2023-01-24T11:21:20;1.00;1.00;1.00
45700;PMS5003;36277;32.852;-116.998;2023-01-24T11:23:58;1.80;1.80;1.20
45700;PMS5003;36277;32.852;-116.998;2023-01-24T11:26:50;2.00;2.00;1.80
45700;PMS5003;36277;32.852;-116.998;2023-01-24T11:29:19;1.40;1.40;1.40
45700;PMS5003;36277;32.852;-116.998;2023-01-24T11:31:57;1.40;1.40;1.00
45700;PMS5003;36277;32.852;-116.998;2023-01-24T11:35:02;1.00;1.00;1.00
45700;PMS5003;36277;32.852;-116.998;2023-01-24T11:40:24;2.00;2.00;2.00
45700;PMS5003;36277;32.852;-116.998;2023-01-24T11:43:35;1.40;1.40;1.00
45700;PMS5003;36277;32.852;-116.998;2023-01-24T11:55:08;1.00;1.00;1.00
45700;PMS5003;36277;32.852;-116.998;2023-01-24T12:11:40;1.20;1.20;1.00
45700;PMS5003;36277;32.852;-116.998;2023-01-24T12:22:22;1.00;1.00;1.00
45700;PMS5003;36277;32.852;-116.998;2023-01-24T12:24:57;1.00;1.00;1.00
45700;PMS5003;36277;32.852;-116.998;2023-01-24T12:27:30;0.80;0.80;0.40
45700;PMS5003;36277;32.852;-116.998;2023-01-24T12:35:25;1.00;1.00;1.00
45700;PMS5003;36277;32.852;-116.998;2023-01-24T12:38:13;0.00;0.00;0.00
45700;PMS5003;36277;32.852;-116.998;2023-01-24T12:51:56;0.00;0.00;0.00
45700;PMS5003;36277;32.852;-116.998;2023-01-24T12:58:00;1.00;1.00;1.00
45700;PMS5003;36277;32.852;-116.998;2023-01-24T13:00:27;0.00;0.00;0.00
45700;PMS5003;36277;32.852;-116.998;2023-01-24T13:03:23;0.40;0.40;0.40
45700;PMS5003;36277;32.852;-116.998;2023-01-24T13:11:45;0.00;0.00;0.00
45700;PMS5003;36277;32.852;-116.998;2023-01-24T13:14:16;0.00;0.00;0.00
45700;PMS5003;36277;32.852;-116.998;2023-01-24T13:20:00;0.00;0.00;0.00
45700;PMS5003;36277;32.852;-116.998;2023-01-24T13:22:33;0.00;0.00;0.00
45700;PMS5003;36277;32.852;-116.998;2023-01-24T13:33:28;1.00;1.00;1.00
45700;PMS5003;36277;32.852;-116.998;2023-01-24T13:36:21;0.00;0.00;0.00
45700;PMS5003;36277;32.852;-116.998;2023-01-24T13:38:51;0.80;0.80;0.00
45700;PMS5003;36277;32.852;-116.998;2023-01-24T13:41:38;0.40;0.40;0.40
45700;PMS5003;36277;32.852;-116.998;2023-01-24T13:44:26;0.00;0.00;0.00
45700;PMS5003;36277;32.852;-116.998;2023-01-24T13:51:55;0.00;0.00;0.00
45700;PMS5003;36277;32.852;-116.998;2023-01-24T13:54:36;1.00;1.00;1.00
45700;PMS5003;36277;32.852;-116.998;2023-01-24T13:57:13;1.00;1.00;1.00
45700;PMS5003;36277;32.852;-116.998;2023-01-24T13:59:42;0.00;0.00;0.00
45700;PMS5003;36277;32.852;-116.998;2023-01-24T14:02:36;0.00;0.00;0.00
45700;PMS5003;36277;32.852;-116.998;2023-01-24T14:07:59;0.20;0.20;0.20
45700;PMS5003;36277;32.852;-116.998;2023-01-24T14:13:41;0.00;0.00;0.00
45700;PMS5003;36277;32.852;-116.998;2023-01-24T14:24:25;0.00;0.00;0.00
45700;PMS5003;36277;32.852;-116.998;2023-01-24T14:26:53;0.00;0.00;0.00
45700;PMS5003;36277;32.852;-116.998;2023-01-24T14:29:21;0.00;0.00;0.00
45700;PMS5003;36277;32.852;-116.998;2023-01-24T14:32:03;0.00;0.00;0.00
45700;PMS5003;36277;32.852;-116.998;2023-01-24T14:34:53;0.00;0.00;0.00
45700;PMS5003;36277;32.852;-116.998;2023-01-24T14:37:34;0.00;0.00;0.00
45700;PMS5003;36277;32.852;-116.998;2023-01-24T14:43:02;0.00;0.00;0.00
45700;PMS5003;36277;32.852;-116.998;2023-01-24T14:45:33;0.20;0.20;0.00
45700;PMS5003;36277;32.852;-116.998;2023-01-24T14:48:00;0.00;0.00;0.00
45700;PMS5003;36277;32.852;-116.998;2023-01-24T14:50:33;0.00;0.00;0.00
45700;PMS5003;36277;32.852;-116.998;2023-01-24T14:53:02;0.20;0.20;0.00
45700;PMS5003;36277;32.852;-116.998;2023-01-24T14:55:49;0.40;0.40;0.40
45700;PMS5003;36277;32.852;-116.998;2023-01-24T14:58:22;0.00;0.00;0.00
45700;PMS5003;36277;32.852;-116.998;2023-01-24T15:00:51;0.00;0.00;0.00
45700;PMS5003;36277;32.852;-116.998;2023-01-24T15:03:23;0.00;0.00;0.00
45700;PMS5003;36277;32.852;-116.998;2023-01-24T15:05:53;0.00;0.00;0.00
45700;PMS5003;36277;32.852;-116.998;2023-01-24T15:08:20;0.40;0.40;0.00
45700;PMS5003;36277;32.852;-116.998;2023-01-24T15:10:57;0.00;0.00;0.00
45700;PMS5003;36277;32.852;-116.998;2023-01-24T15:13:28;0.00;0.00;0.00
45700;PMS5003;36277;32.852;-116.998;2023-01-24T15:16:07;0.00;0.00;0.00
45700;PMS5003;36277;32.852;-116.998;2023-01-24T15:18:47;0.00;0.00;0.00
45700;PMS5003;36277;32.852;-116.998;2023-01-24T15:21:22;0.00;0.00;0.00
45700;PMS5003;36277;32.852;-116.998;2023-01-24T15:23:51;0.00;0.00;0.00
45700;PMS5003;36277;32.852;-116.998;2023-01-24T15:26:21;0.00;0.00;0.00
45700;PMS5003;36277;32.852;-116.998;2023-01-24T15:34:45;0.00;0.00;0.00
45700;PMS5003;36277;32.852;-116.998;2023-01-24T15:37:12;0.00;0.00;0.00
45700;PMS5003;36277;32.852;-116.998;2023-01-24T15:39:40;0.00;0.00;0.00
45700;PMS5003;36277;32.852;-116.998;2023-01-24T15:42:14;0.00;0.00;0.00
45700;PMS5003;36277;32.852;-116.998;2023-01-24T15:45:00;0.00;0.00;0.00
45700;PMS5003;36277;32.852;-116.998;2023-01-24T15:47:28;0.00;0.00;0.00
45700;PMS5003;36277;32.852;-116.998;2023-01-24T15:50:27;1.20;1.20;1.00
45700;PMS5003;36277;32.852;-116.998;2023-01-24T15:53:18;1.00;1.00;1.00
45700;PMS5003;36277;32.852;-116.998;2023-01-24T15:55:46;0.00;0.00;0.00
45700;PMS5003;36277;32.852;-116.998;2023-01-24T15:58:13;0.00;0.00;0.00
45700;PMS5003;36277;32.852;-116.998;2023-01-24T16:00:39;2.00;2.00;2.00
45700;PMS5003;36277;32.852;-116.998;2023-01-24T16:03:14;4.80;4.80;4.00
45700;PMS5003;36277;32.852;-116.998;2023-01-24T16:05:41;6.00;6.00;5.00
45700;PMS5003;36277;32.852;-116.998;2023-01-24T16:08:07;5.40;5.40;5.00
45700;PMS5003;36277;32.852;-116.998;2023-01-24T16:10:34;3.00;3.00;3.00